createdAt,value
2019-05-06T06:28:34.125Z,6
2019-05-06T06:33:36.625Z,6
2019-05-06T06:38:39.327Z,6
2019-05-06T06:43:42.091Z,7
2019-05-06T06:48:43.912Z,7
2019-05-06T06:53:46.385Z,8
2019-05-06T06:58:48.890Z,7
2019-05-06T07:03:52.775Z,8
2019-05-06T07:08:54.056Z,7
2019-05-06T07:13:56.311Z,8
2019-05-06T07:18:58.645Z,7
2019-05-06T07:24:02.139Z,7
2019-05-06T07:29:13.120Z,6
2019-05-06T07:34:06.019Z,6
2019-05-06T07:39:08.833Z,7
2019-05-06T07:44:12.946Z,7
2019-05-06T07:49:13.522Z,5
2019-05-06T07:54:16.638Z,5
2019-05-06T07:59:18.323Z,5
2019-05-06T08:04:22.914Z,6
2019-05-06T08:09:23.296Z,6
2019-05-06T08:14:25.793Z,4
2019-05-06T08:19:28.143Z,6
2019-05-06T08:24:30.618Z,5
2019-05-06T08:29:33.227Z,5
2019-05-06T08:34:35.610Z,5
2019-05-06T08:39:38.105Z,5
2019-05-06T08:44:42.679Z,5
2019-05-06T08:49:42.909Z,4
2019-05-06T08:54:45.398Z,4
2019-05-06T08:59:47.813Z,4
2019-05-06T09:04:51.774Z,4
2019-05-06T09:09:52.812Z,5
2019-05-06T09:14:55.175Z,4
2019-05-06T09:19:57.988Z,4
2019-05-06T09:25:02.260Z,5
2019-05-06T09:30:03.066Z,4
2019-05-06T09:35:05.184Z,5
2019-05-06T09:40:07.561Z,5
2019-05-06T09:45:12.354Z,5
2019-05-06T09:50:12.781Z,4
2019-05-06T09:55:14.946Z,4
2019-05-06T10:00:17.476Z,5
2019-05-06T10:05:19.752Z,5
2019-05-06T10:10:22.439Z,5
2019-05-06T10:15:24.750Z,6
2019-05-06T10:20:27.210Z,6
2019-05-06T10:25:30.087Z,7
2019-05-06T10:30:33.112Z,6
2019-05-06T10:35:34.516Z,6
2019-05-06T10:40:44.073Z,4
2019-05-06T10:45:39.425Z,4
2019-05-06T10:50:42.308Z,3
2019-05-06T10:55:44.585Z,4
2019-05-06T11:00:46.804Z,4
2019-05-06T11:05:49.278Z,5
2019-05-06T11:10:53.381Z,3
2019-05-06T11:15:55.494Z,4
2019-05-06T11:20:56.673Z,4
2019-05-06T11:25:59.512Z,3
2019-05-06T11:31:02.409Z,3
2019-05-06T11:36:04.013Z,4
2019-05-06T11:41:06.864Z,3
2019-05-06T11:46:09.242Z,3
2019-05-06T11:51:12.743Z,3
2019-05-06T11:56:14.667Z,3
2019-05-06T12:01:16.759Z,3
2019-05-06T12:06:18.866Z,3
2019-05-06T12:11:23.273Z,3
2019-05-06T12:16:25.905Z,3
2019-05-06T12:21:26.144Z,3
2019-05-06T12:26:32.006Z,2
2019-05-06T12:31:32.750Z,3
2019-05-06T12:36:33.539Z,3
2019-05-06T12:41:36.287Z,4
2019-05-06T12:46:38.537Z,3
2019-05-06T12:51:43.211Z,3
2019-05-06T12:56:45.782Z,3
2019-05-06T13:01:46.062Z,4
2019-05-06T13:06:48.258Z,2
2019-05-06T13:11:52.333Z,3
2019-05-06T13:16:53.434Z,3
2019-05-06T13:21:55.662Z,3
2019-05-06T13:26:58.983Z,3
2019-05-06T13:32:02.004Z,3
2019-05-06T13:37:03.046Z,3
2019-05-06T13:42:05.532Z,3
2019-05-06T13:47:08.095Z,3
2019-05-06T13:52:12.592Z,2
2019-05-06T13:57:12.832Z,3
2019-05-06T14:02:16.227Z,3
2019-05-06T14:07:17.831Z,3
2019-05-06T14:12:22.018Z,3
2019-05-06T14:17:22.808Z,3
2019-05-06T14:22:25.251Z,3
2019-05-06T14:27:27.597Z,2
2019-05-06T14:32:32.341Z,3
2019-05-06T14:37:32.989Z,3
2019-05-06T14:42:35.189Z,2
2019-05-06T14:47:37.441Z,3
2019-05-06T14:52:42.370Z,4
2019-05-06T14:57:42.884Z,3
2019-05-06T15:02:44.807Z,3
2019-05-06T15:07:47.260Z,3
2019-05-06T15:12:49.732Z,4
2019-05-06T15:17:53.214Z,3
2019-05-06T15:22:54.780Z,3
2019-05-06T15:27:57.221Z,3
2019-05-06T15:38:02.298Z,2
2019-05-06T15:43:04.465Z,2
2019-05-06T15:48:07.110Z,3
2019-05-06T15:53:09.396Z,3
2019-05-06T15:58:12.405Z,2
2019-05-06T16:03:14.259Z,3
2019-05-06T16:08:16.839Z,2
2019-05-06T16:13:19.298Z,3
2019-05-06T16:18:23.358Z,2
2019-05-06T16:23:24.264Z,3
2019-05-06T16:28:26.572Z,2
2019-05-06T16:33:29.103Z,3
2019-05-06T16:38:32.277Z,3
2019-05-06T16:43:34.350Z,3
2019-05-06T16:48:36.661Z,3
2019-05-06T16:53:39.065Z,2
2019-05-06T16:58:43.983Z,3
2019-05-06T17:03:43.789Z,3
2019-05-06T17:08:46.640Z,3
2019-05-06T17:13:48.751Z,2
2019-05-06T17:23:53.580Z,3
2019-05-06T17:28:56.038Z,2
2019-05-06T17:33:58.544Z,2
2019-05-06T17:39:02.650Z,3
2019-05-06T17:44:03.423Z,3
2019-05-06T17:49:05.869Z,3
2019-05-06T17:54:08.464Z,3
2019-05-06T17:59:10.764Z,3
2019-05-06T18:04:13.293Z,3
2019-05-06T18:09:15.694Z,2
2019-05-06T18:14:18.141Z,3
2019-05-06T18:19:22.243Z,7
2019-05-06T18:24:23.229Z,3
2019-05-06T18:29:25.676Z,4
2019-05-06T18:34:28.056Z,3
2019-05-06T18:49:35.361Z,3
2019-05-06T18:54:38.041Z,4
2019-05-06T18:59:41.920Z,8
2019-05-06T19:04:42.800Z,5
2019-05-06T19:09:45.252Z,5
2019-05-06T19:14:47.685Z,4
2019-05-06T19:19:51.998Z,4
2019-05-06T19:24:52.615Z,9
2019-05-06T19:29:55.074Z,12
2019-05-06T19:34:57.479Z,5
2019-05-06T19:39:59.972Z,5
2019-05-06T19:45:02.724Z,6
2019-05-06T19:50:05.219Z,7
2019-05-06T19:55:07.722Z,8
2019-05-06T20:00:09.848Z,8
2019-05-06T20:05:12.247Z,7
2019-05-06T20:10:14.922Z,12
2019-05-06T20:15:17.289Z,11
2019-05-06T20:20:19.644Z,9
2019-05-06T20:25:22.175Z,9
2019-05-06T20:30:24.541Z,8
2019-05-06T20:35:27.059Z,8
2019-05-06T20:40:32.430Z,7
2019-05-06T20:45:34.710Z,7
2019-05-06T20:50:34.390Z,5
2019-05-06T21:00:39.702Z,5
2019-05-06T21:05:43.398Z,5
2019-05-06T21:10:44.351Z,7
2019-05-06T21:15:46.745Z,6
2019-05-06T21:20:49.559Z,6
2019-05-06T21:25:52.401Z,5
2019-05-06T21:30:54.194Z,5
2019-05-06T21:35:56.604Z,4
2019-05-06T21:46:02.391Z,5
2019-05-06T21:51:04.363Z,4
2019-05-06T21:56:07.220Z,7
2019-05-06T22:01:08.932Z,5
2019-05-06T22:06:12.940Z,6
2019-05-06T22:11:14.952Z,6
2019-05-06T22:16:16.281Z,5
2019-05-06T22:21:19.119Z,5
2019-05-06T22:26:23.045Z,5
2019-05-06T22:31:24.249Z,6
2019-05-06T22:36:26.204Z,5
2019-05-06T22:41:28.601Z,5
2019-05-06T22:46:32.903Z,5
2019-05-06T22:51:33.960Z,6
2019-05-06T22:56:36.164Z,6
2019-05-06T23:01:38.477Z,5
2019-05-06T23:06:40.904Z,5
2019-05-06T23:11:43.365Z,5
2019-05-06T23:16:45.869Z,5
2019-05-06T23:21:48.289Z,5
2019-05-06T23:26:52.682Z,5
2019-05-06T23:31:53.180Z,6
2019-05-06T23:36:55.630Z,6
2019-05-06T23:41:58.119Z,5
2019-05-06T23:47:02.086Z,5
2019-05-06T23:52:03.372Z,5
2019-05-06T23:57:05.472Z,6
